Startpagina
METAR-TAF:

METAR-TAF

Vliegvelden :

Vliegbasis Volkel

Uden, Nederland

breedte: 51-39N, lengte: 005-42E, hoogte: 22 m

Actueel weer

Dit bericht is 14 minuten geleden gemaakt, om 06:26 UTC
Wind 9 kt uit het westzuidwesten
Temperatuur 9°C
Vochtigheid 87%
Druk 1010 hPa
Zicht 10 km of meer
Verspreide wolken op 1400 ft
Geheel bewolkt op 1700 ft

METAR: EHVK 070626Z AUTO 25009KT 9999 SCT014 OVC017 09/07 Q1010 GRN

Tijdstip: 07:40 (06:40 UTC)

Verwachting

Dit bericht is 1 uur en het 20 minuten geleden gemaakt, om 05:20 UTC
Verwachting geldig van 07 om 06 UTC tot 07 om 18 UTC
Wind 10 kt uit het westzuidwesten
Zicht 10 km of meer
Verspreide wolken op 1500 ft
Gebroken wolken op 2000 ft
Kans 30% :
Tijdelijke
van 07 om 06 UTC tot 07 om 10 UTC
Verspreide wolken op 1200 ft
Gebroken wolken op 1600 ft
Wijzigt naar
van 07 om 16 UTC tot 07 om 18 UTC
Wind 8 kt uit het zuidwesten

TAF: EHVK 070520Z 0706/0718 25010KT 9999 SCT015 BKN020 PROB30 TEMPO 0706/0710 SCT012 BKN016 BECMG 0716/0718 22008KT

Waarnemingen en weersverwachtingen van meer dan 4000 vliegvelden (METAR en TAF).

De beschikbare stations zijn de gele en rode punten op de kaart.

Ga met uw muis naar het station om de naam te zien.

Klik dan om waarnemingen en weersverwachtingen te zien.

kaart wijzigen: klik op de groene knoppen met een zwart kruis om in te zoomen, op de groene knop met een streepje om uit te zoomen of op de groene pijlen voor aangrenzende kaarten.


METAR-TAF: